createdAt,value
2019-04-12T00:01:57.474Z,99.90
2019-04-12T00:04:31.588Z,99.90
2019-04-12T00:07:00.847Z,99.90
2019-04-12T00:09:31.132Z,99.90
2019-04-12T00:12:01.111Z,99.90
2019-04-12T00:14:31.317Z,99.90
2019-04-12T00:17:01.173Z,99.90
2019-04-12T00:19:33.092Z,99.90
2019-04-12T00:22:02.930Z,99.90
2019-04-12T00:24:34.942Z,99.90
2019-04-12T00:27:04.703Z,99.90
2019-04-12T00:29:35.005Z,99.90
2019-04-12T00:32:04.813Z,99.90
2019-04-12T00:34:34.962Z,99.90
2019-04-12T00:37:04.955Z,99.90
2019-04-12T00:39:34.787Z,99.90
2019-04-12T00:42:04.625Z,99.90
2019-04-12T00:44:34.869Z,99.90
2019-04-12T00:47:09.336Z,99.90
2019-04-12T00:49:40.654Z,99.90
2019-04-12T00:52:14.902Z,99.90
2019-04-12T00:54:46.432Z,99.90
2019-04-12T00:57:15.498Z,99.90
2019-04-12T00:59:47.355Z,99.90
2019-04-12T01:02:35.230Z,99.90
2019-04-12T01:05:08.527Z,99.90
2019-04-12T01:07:38.487Z,99.90
2019-04-12T01:10:08.805Z,99.90
2019-04-12T01:12:38.609Z,99.90
2019-04-12T01:15:08.987Z,99.90
2019-04-12T01:17:39.515Z,99.90
2019-04-12T01:20:09.736Z,99.90
2019-04-12T01:22:42.712Z,99.90
2019-04-12T01:25:14.187Z,99.90
2019-04-12T01:27:44.955Z,99.90
2019-04-12T01:30:16.119Z,99.90
2019-04-12T01:32:45.935Z,99.90
2019-04-12T01:35:15.788Z,99.90
2019-04-12T01:37:46.410Z,99.90
2019-04-12T01:40:16.559Z,99.90
2019-04-12T01:42:46.390Z,99.90
2019-04-12T01:45:16.243Z,99.90
2019-04-12T01:47:46.530Z,99.90
2019-04-12T01:50:16.530Z,99.90
2019-04-12T01:52:46.817Z,99.90
2019-04-12T01:55:17.013Z,99.90
2019-04-12T01:57:46.792Z,99.90
2019-04-12T02:00:16.967Z,99.90
2019-04-12T02:02:46.737Z,99.90
2019-04-12T02:05:19.294Z,99.90
2019-04-12T02:07:49.073Z,99.90
2019-04-12T02:10:19.301Z,99.90
2019-04-12T02:12:49.236Z,99.90
2019-04-12T02:15:19.579Z,99.90
2019-04-12T02:17:49.410Z,99.90
2019-04-12T02:20:19.889Z,99.90
2019-04-12T02:22:49.919Z,99.90
2019-04-12T02:25:21.318Z,99.90
2019-04-12T02:27:51.212Z,99.90
2019-04-12T02:30:22.551Z,99.90
2019-04-12T02:33:05.855Z,99.90
2019-04-12T02:35:40.015Z,99.90
2019-04-12T02:38:10.307Z,99.90
2019-04-12T02:40:41.521Z,99.90
2019-04-12T02:43:12.989Z,99.90
2019-04-12T02:45:47.992Z,99.90
2019-04-12T02:48:38.556Z,99.90
2019-04-12T02:51:47.429Z,99.90
2019-04-12T02:54:45.095Z,99.90
2019-04-12T02:57:33.704Z,99.90
2019-04-12T03:00:06.891Z,99.90
2019-04-12T03:02:36.880Z,99.90
2019-04-12T03:05:08.238Z,99.90
2019-04-12T03:07:39.341Z,99.90
2019-04-12T03:10:09.384Z,99.90
2019-04-12T03:12:39.787Z,99.90
2019-04-12T03:15:10.003Z,99.90
2019-04-12T03:17:40.136Z,99.90
2019-04-12T03:20:10.789Z,99.90
2019-04-12T03:22:41.111Z,99.90
2019-04-12T03:25:11.671Z,99.90
2019-04-12T03:27:42.524Z,99.90
2019-04-12T03:30:12.814Z,99.90
2019-04-12T03:32:42.947Z,99.90
2019-04-12T03:35:13.298Z,99.90
2019-04-12T03:37:43.158Z,99.90
2019-04-12T03:40:13.215Z,99.90
2019-04-12T03:42:43.702Z,99.90
2019-04-12T03:45:14.280Z,99.90
2019-04-12T03:47:44.414Z,99.90
2019-04-12T03:50:14.452Z,99.90
2019-04-12T03:52:45.034Z,99.90
2019-04-12T03:55:15.392Z,99.90
2019-04-12T03:57:45.303Z,99.90
2019-04-12T04:00:17.361Z,99.90
2019-04-12T04:02:47.198Z,99.90
2019-04-12T04:05:17.393Z,99.90
2019-04-12T04:07:47.348Z,99.90
2019-04-12T04:10:17.450Z,99.90
2019-04-12T04:12:47.412Z,99.90
2019-04-12T04:15:18.099Z,99.90
2019-04-12T04:18:05.600Z,99.90
2019-04-12T04:20:49.530Z,99.90
2019-04-12T04:23:35.651Z,99.90
2019-04-12T04:26:27.958Z,99.90
2019-04-12T04:29:19.619Z,99.90
2019-04-12T04:31:55.644Z,99.90
2019-04-12T04:34:25.732Z,99.90
2019-04-12T04:36:56.140Z,99.90
2019-04-12T04:39:27.033Z,99.90
2019-04-12T04:41:57.553Z,99.90
2019-04-12T04:44:28.310Z,99.90
2019-04-12T04:46:59.101Z,99.90
2019-04-12T04:49:29.070Z,99.90
2019-04-12T04:52:00.643Z,99.90
2019-04-12T04:54:30.962Z,99.90
2019-04-12T04:57:01.617Z,99.90
2019-04-12T04:59:31.902Z,99.90
2019-04-12T05:02:02.298Z,99.90
2019-04-12T05:04:32.909Z,99.90
2019-04-12T05:07:03.199Z,99.90
2019-04-12T05:09:33.122Z,99.90
2019-04-12T05:12:03.155Z,99.90
2019-04-12T05:14:33.066Z,99.90
2019-04-12T05:17:03.083Z,99.90
2019-04-12T05:19:33.696Z,99.90
2019-04-12T05:22:04.262Z,99.90
2019-04-12T05:24:34.682Z,99.90
2019-04-12T05:27:05.094Z,99.90
2019-04-12T05:29:35.518Z,99.90
2019-04-12T05:32:05.976Z,99.90
2019-04-12T05:34:35.911Z,99.90
2019-04-12T05:37:10.492Z,99.90
2019-04-12T05:39:37.935Z,99.90
2019-04-12T05:42:08.434Z,99.90
2019-04-12T05:44:38.224Z,99.90
2019-04-12T05:47:33.390Z,99.90
2019-04-12T05:50:19.273Z,99.90
2019-04-12T05:52:49.076Z,99.90
2019-04-12T05:55:19.345Z,99.90
2019-04-12T05:57:55.986Z,99.90
2019-04-12T06:00:35.594Z,99.90
2019-04-12T06:03:05.463Z,99.90
2019-04-12T06:05:35.336Z,99.90
2019-04-12T06:08:05.219Z,99.90
2019-04-12T06:10:35.490Z,99.90
2019-04-12T06:13:05.608Z,99.90
2019-04-12T06:15:36.516Z,99.90
2019-04-12T06:18:06.782Z,99.90
2019-04-12T06:20:42.786Z,99.90
2019-04-12T06:23:13.102Z,99.90
2019-04-12T06:26:04.987Z,99.90
2019-04-12T06:28:34.771Z,99.90
2019-04-12T06:31:05.153Z,99.90
2019-04-12T06:33:35.502Z,99.90
2019-04-12T06:36:05.356Z,99.90
2019-04-12T06:38:35.443Z,99.90
2019-04-12T06:41:05.657Z,99.90
2019-04-12T06:43:35.892Z,99.90
2019-04-12T06:46:08.187Z,99.90
2019-04-12T06:48:38.111Z,99.90
2019-04-12T06:51:09.030Z,99.90
2019-04-12T06:53:40.762Z,99.90
2019-04-12T06:56:24.326Z,99.90
2019-04-12T06:58:54.186Z,99.90
2019-04-12T07:01:49.688Z,99.90
2019-04-12T07:04:36.435Z,99.90
2019-04-12T07:07:06.259Z,99.90
2019-04-12T07:09:36.138Z,99.90
2019-04-12T07:12:06.120Z,99.90
2019-04-12T07:14:35.908Z,99.90
2019-04-12T07:17:05.831Z,99.90
2019-04-12T07:19:35.814Z,99.90
2019-04-12T07:22:06.230Z,99.90
2019-04-12T07:24:36.407Z,99.90
2019-04-12T07:27:06.310Z,99.90
2019-04-12T07:29:36.635Z,99.90
2019-04-12T07:32:06.813Z,99.90
2019-04-12T07:34:37.509Z,99.90
2019-04-12T07:37:07.751Z,99.90
2019-04-12T07:39:37.901Z,99.90
2019-04-12T07:42:07.868Z,99.90
2019-04-12T07:44:38.070Z,99.90
2019-04-12T07:47:08.301Z,99.90
2019-04-12T07:49:39.409Z,99.90
2019-04-12T07:52:27.731Z,99.90
2019-04-12T07:55:35.084Z,99.90
2019-04-12T07:58:13.494Z,99.90
2019-04-12T08:00:59.213Z,99.90
2019-04-12T08:03:54.314Z,99.90
2019-04-12T08:06:30.436Z,99.90
2019-04-12T08:09:00.299Z,99.90
2019-04-12T08:11:30.122Z,99.90
2019-04-12T08:14:00.044Z,99.90
2019-04-12T08:16:29.846Z,99.90
2019-04-12T08:19:00.167Z,99.90
2019-04-12T08:21:30.043Z,99.90
2019-04-12T08:24:00.190Z,99.90
2019-04-12T08:26:29.977Z,99.90
2019-04-12T08:28:59.865Z,99.90
2019-04-12T08:31:29.660Z,99.90
2019-04-12T08:33:59.870Z,99.90
2019-04-12T08:36:29.659Z,99.90
2019-04-12T08:38:59.477Z,99.90
2019-04-12T08:41:29.283Z,99.90
2019-04-12T08:43:59.168Z,99.90
2019-04-12T08:46:29.140Z,99.90
2019-04-12T08:48:58.937Z,99.90
2019-04-12T08:51:29.249Z,99.90
2019-04-12T08:53:59.085Z,99.90
2019-04-12T08:56:29.351Z,99.90
2019-04-12T08:58:59.506Z,99.90
2019-04-12T09:01:29.772Z,99.90
2019-04-12T09:03:59.642Z,99.90
2019-04-12T09:06:29.884Z,99.90
2019-04-12T09:09:27.588Z,99.90
2019-04-12T09:11:58.438Z,99.90
2019-04-12T09:14:28.196Z,99.90
2019-04-12T09:16:59.065Z,99.90
2019-04-12T09:19:39.676Z,99.90
2019-04-12T09:22:43.422Z,99.90
2019-04-12T09:25:31.492Z,99.90
2019-04-12T09:28:01.875Z,99.90
2019-04-12T09:30:31.996Z,99.90
2019-04-12T09:33:02.087Z,99.90
2019-04-12T09:35:32.239Z,99.90
2019-04-12T09:38:02.051Z,99.90
2019-04-12T09:40:31.883Z,99.90
2019-04-12T09:43:02.154Z,99.90
2019-04-12T09:45:32.831Z,99.90
2019-04-12T09:48:03.021Z,99.90
2019-04-12T09:50:32.794Z,99.90
2019-04-12T09:53:03.061Z,99.90
2019-04-12T09:55:53.819Z,99.90
2019-04-12T09:58:37.440Z,99.90
2019-04-12T10:01:17.846Z,99.90
2019-04-12T10:03:58.786Z,99.90
2019-04-12T10:06:40.392Z,99.90
2019-04-12T10:09:27.998Z,99.90
2019-04-12T10:12:05.603Z,99.90
2019-04-12T10:14:47.223Z,99.90
2019-04-12T10:17:29.102Z,99.90
2019-04-12T10:20:10.810Z,99.90
2019-04-12T10:22:52.885Z,99.90
2019-04-12T10:25:34.051Z,99.90
2019-04-12T10:28:15.394Z,99.90
2019-04-12T10:30:56.970Z,99.90
2019-04-12T10:33:38.201Z,99.90
2019-04-12T10:36:19.820Z,99.90
2019-04-12T10:39:20.332Z,99.90
2019-04-12T10:42:03.887Z,99.90
2019-04-12T10:45:04.127Z,99.90
2019-04-12T10:47:50.066Z,99.90
2019-04-12T10:50:53.219Z,99.90
2019-04-12T10:53:59.484Z,99.90
2019-04-12T10:56:40.959Z,99.90
2019-04-12T11:02:07.252Z,99.90
2019-04-12T11:04:56.002Z,99.90
2019-04-12T11:07:45.191Z,99.90
2019-04-12T11:10:34.042Z,99.90
2019-04-12T11:13:22.816Z,99.90
2019-04-12T11:16:11.590Z,99.90
2019-04-12T11:18:41.411Z,99.90
2019-04-12T11:21:30.628Z,99.90
2019-04-12T11:24:19.415Z,99.90
2019-04-12T11:27:00.989Z,99.90
2019-04-12T11:29:42.322Z,99.90
2019-04-12T11:32:13.253Z,99.90
2019-04-12T11:35:02.041Z,99.60
2019-04-12T11:37:50.815Z,99.50
2019-04-12T11:40:39.923Z,99.90
2019-04-12T11:43:27.601Z,98.30
2019-04-12T11:45:57.894Z,99.50
2019-04-12T11:48:28.293Z,98.70
2019-04-12T11:51:17.095Z,99.40
2019-04-12T11:54:05.865Z,99.90
2019-04-12T11:56:54.884Z,99.40
2019-04-12T11:59:43.670Z,98.60
2019-04-12T12:02:51.280Z,98.60
2019-04-12T12:05:59.186Z,97.50
2019-04-12T12:09:07.847Z,98.00
2019-04-12T12:15:18.616Z,97.50
2019-04-12T12:18:08.686Z,97.30
2019-04-12T12:20:57.450Z,97.60
2019-04-12T12:23:46.235Z,95.80
2019-04-12T12:26:27.299Z,97.80
2019-04-12T12:29:08.534Z,98.30
2019-04-12T12:31:50.326Z,98.30
2019-04-12T12:34:31.383Z,98.00
2019-04-12T12:37:12.503Z,97.70
2019-04-12T12:39:53.227Z,97.50
2019-04-12T12:42:42.471Z,97.30
2019-04-12T12:45:31.718Z,97.60
2019-04-12T12:51:16.346Z,95.80
2019-04-12T12:54:05.240Z,96.40
2019-04-12T12:56:54.021Z,96.60
2019-04-12T12:59:23.869Z,96.60
2019-04-12T13:02:13.006Z,97.20
2019-04-12T13:05:02.158Z,96.90
2019-04-12T13:07:51.360Z,97.20
2019-04-12T13:10:40.566Z,97.40
2019-04-12T13:13:29.351Z,96.90
2019-04-12T13:16:18.895Z,96.70
2019-04-12T13:19:07.698Z,95.60
2019-04-12T13:21:56.458Z,96.80
2019-04-12T13:24:45.239Z,96.40
2019-04-12T13:27:26.544Z,96.40
2019-04-12T13:33:20.806Z,97.20
2019-04-12T13:36:08.779Z,95.90
2019-04-12T13:41:44.722Z,96.30
2019-04-12T13:44:25.854Z,96.40
2019-04-12T13:47:07.478Z,96.20
2019-04-12T13:49:48.578Z,95.90
2019-04-12T13:52:30.183Z,96.30
2019-04-12T13:55:11.777Z,96.40
2019-04-12T13:57:53.226Z,96.60
2019-04-12T14:00:35.194Z,96.30
2019-04-12T14:03:17.721Z,96.10
2019-04-12T14:06:00.167Z,97.10
2019-04-12T14:08:41.596Z,96.60
2019-04-12T14:11:22.610Z,97.00
2019-04-12T14:14:04.032Z,96.00
2019-04-12T14:16:45.588Z,96.10
2019-04-12T14:19:27.046Z,96.30
2019-04-12T14:22:08.295Z,95.90
2019-04-12T14:24:50.000Z,96.20
2019-04-12T14:27:31.462Z,95.60
2019-04-12T14:33:41.172Z,95.30
2019-04-12T14:36:29.408Z,95.70
2019-04-12T14:39:15.767Z,95.90
2019-04-12T14:41:57.457Z,95.50
2019-04-12T14:44:44.692Z,95.40
2019-04-12T14:47:29.497Z,95.20
2019-04-12T14:50:10.759Z,95.70
2019-04-12T14:52:52.425Z,95.70
2019-04-12T14:55:33.770Z,95.50
2019-04-12T14:58:14.886Z,95.30
2019-04-12T15:01:08.996Z,96.00
2019-04-12T15:03:40.251Z,96.40
2019-04-12T15:06:21.973Z,96.30
2019-04-12T15:09:04.771Z,95.40
2019-04-12T15:11:46.154Z,95.30
2019-04-12T15:14:27.714Z,95.80
2019-04-12T15:17:09.030Z,96.00
2019-04-12T15:19:51.422Z,96.50
2019-04-12T15:22:32.535Z,96.10
2019-04-12T15:25:14.328Z,95.90
2019-04-12T15:27:56.097Z,96.10
2019-04-12T15:30:37.745Z,96.10
2019-04-12T15:33:19.099Z,96.20
2019-04-12T15:36:00.873Z,95.70
2019-04-12T15:38:42.352Z,96.20
2019-04-12T15:41:24.172Z,95.50
2019-04-12T15:44:05.315Z,95.90
2019-04-12T15:46:46.415Z,96.10
2019-04-12T15:49:27.563Z,96.70
2019-04-12T15:52:09.226Z,96.80
2019-04-12T15:54:51.007Z,96.80
2019-04-12T15:57:32.360Z,96.70
2019-04-12T16:00:15.828Z,96.20
2019-04-12T16:02:55.638Z,96.80
2019-04-12T16:05:44.728Z,96.60
2019-04-12T16:12:13.872Z,95.90
2019-04-12T16:15:21.614Z,95.90
2019-04-12T16:18:31.385Z,96.50
2019-04-12T16:21:20.158Z,96.50
2019-04-12T16:24:08.980Z,97.10
2019-04-12T16:26:58.618Z,96.80
2019-04-12T16:32:53.592Z,96.60
2019-04-12T16:35:49.207Z,96.50
2019-04-12T16:38:32.334Z,96.60
2019-04-12T16:41:14.346Z,96.80
2019-04-12T16:43:55.722Z,96.60
2019-04-12T16:46:37.241Z,96.90
2019-04-12T16:49:07.064Z,96.20
2019-04-12T16:51:36.971Z,96.30
2019-04-12T16:54:07.518Z,96.40
2019-04-12T16:56:56.328Z,96.40
2019-04-12T16:59:45.118Z,96.70
2019-04-12T17:02:34.234Z,96.50
2019-04-12T17:05:23.400Z,96.90
2019-04-12T17:08:12.526Z,96.50
2019-04-12T17:11:01.802Z,96.40
2019-04-12T17:13:51.299Z,96.70
2019-04-12T17:16:40.468Z,97.00
2019-04-12T17:19:29.238Z,96.50
2019-04-12T17:22:17.990Z,96.90
2019-04-12T17:25:06.953Z,97.10
2019-04-12T17:27:47.892Z,97.40
2019-04-12T17:30:29.884Z,97.40
2019-04-12T17:33:11.509Z,97.50
2019-04-12T17:35:52.707Z,97.30
2019-04-12T17:38:34.163Z,97.70
2019-04-12T17:41:15.877Z,97.90
2019-04-12T17:43:57.792Z,97.50
2019-04-12T17:46:39.674Z,97.60
2019-04-12T17:49:39.766Z,97.30
2019-04-12T17:52:42.942Z,97.40
2019-04-12T17:55:28.847Z,97.60
2019-04-12T17:58:11.008Z,97.50
2019-04-12T18:04:05.231Z,97.80
2019-04-12T18:06:46.999Z,97.50
2019-04-12T18:09:17.409Z,97.80
2019-04-12T18:15:02.125Z,98.00
2019-04-12T18:17:50.957Z,98.30
2019-04-12T18:20:39.776Z,98.30
2019-04-12T18:23:28.621Z,98.40
2019-04-12T18:26:18.200Z,98.50
2019-04-12T18:28:59.510Z,98.60
2019-04-12T18:31:40.908Z,98.70
2019-04-12T18:34:22.526Z,98.80
2019-04-12T18:37:03.828Z,98.30
2019-04-12T18:39:45.188Z,98.50
2019-04-12T18:42:26.703Z,98.50
2019-04-12T18:44:57.110Z,98.10
2019-04-12T18:47:48.587Z,97.30
2019-04-12T18:50:37.338Z,97.40
2019-04-12T18:53:26.098Z,96.70
2019-04-12T18:55:56.557Z,97.10
2019-04-12T18:58:45.377Z,97.40
2019-04-12T19:01:34.708Z,97.50
2019-04-12T19:04:23.551Z,97.70
2019-04-12T19:07:15.974Z,96.80
2019-04-12T19:13:01.466Z,96.70
2019-04-12T19:15:51.289Z,96.90
2019-04-12T19:19:00.947Z,96.50
2019-04-12T19:21:50.277Z,96.50
2019-04-12T19:24:39.702Z,96.60
2019-04-12T19:27:29.526Z,96.60
2019-04-12T19:30:15.061Z,95.90
2019-04-12T19:32:57.091Z,95.70
2019-04-12T19:39:07.120Z,96.00
2019-04-12T19:41:49.696Z,95.70
2019-04-12T19:44:31.577Z,95.50
2019-04-12T19:47:14.629Z,95.70
2019-04-12T19:49:56.427Z,95.80
2019-04-12T19:52:38.632Z,95.90
2019-04-12T19:55:19.687Z,95.80
2019-04-12T19:58:01.650Z,95.80
2019-04-12T20:00:42.993Z,95.80
2019-04-12T20:03:24.650Z,95.70
2019-04-12T20:06:06.452Z,95.60
2019-04-12T20:08:36.355Z,95.90
2019-04-12T20:11:25.206Z,95.50
2019-04-12T20:14:14.028Z,95.60
2019-04-12T20:17:03.031Z,95.90
2019-04-12T20:19:52.502Z,95.70
2019-04-12T20:22:41.407Z,95.90
2019-04-12T20:25:30.862Z,95.90
2019-04-12T20:28:20.735Z,96.30
2019-04-12T20:31:04.676Z,96.40
2019-04-12T20:33:45.657Z,96.40
2019-04-12T20:36:26.832Z,96.50
2019-04-12T20:39:10.709Z,96.60
2019-04-12T20:41:54.048Z,96.70
2019-04-12T20:44:35.715Z,96.80
2019-04-12T20:47:17.671Z,97.20
2019-04-12T20:49:58.835Z,97.40
2019-04-12T20:52:40.207Z,97.40
2019-04-12T20:55:22.436Z,97.90
2019-04-12T20:58:05.149Z,97.60
2019-04-12T21:00:47.249Z,97.60
2019-04-12T21:03:28.724Z,97.30
2019-04-12T21:06:10.275Z,97.50
2019-04-12T21:08:52.156Z,97.50
2019-04-12T21:11:33.720Z,98.00
2019-04-12T21:14:15.499Z,98.00
2019-04-12T21:16:57.338Z,98.10
2019-04-12T21:19:39.076Z,98.10
2019-04-12T21:22:20.394Z,98.10
2019-04-12T21:25:02.133Z,98.40
2019-04-12T21:27:44.106Z,98.60
2019-04-12T21:30:26.049Z,98.90
2019-04-12T21:32:57.320Z,98.70
2019-04-12T21:35:28.028Z,99.10
2019-04-12T21:37:57.829Z,98.80
2019-04-12T21:40:46.591Z,98.80
2019-04-12T21:46:43.764Z,99.30
2019-04-12T21:49:13.923Z,99.30
2019-04-12T21:52:02.684Z,99.30
2019-04-12T21:54:51.463Z,99.60
2019-04-12T21:57:40.298Z,99.90
2019-04-12T22:00:49.355Z,99.50
2019-04-12T22:03:41.006Z,99.80
2019-04-12T22:06:29.806Z,99.80
2019-04-12T22:09:18.828Z,99.90
2019-04-12T22:12:07.590Z,99.90
2019-04-12T22:14:56.460Z,99.90
2019-04-12T22:17:45.783Z,99.90
2019-04-12T22:20:34.545Z,99.90
2019-04-12T22:23:23.315Z,99.90
2019-04-12T22:26:12.085Z,99.90
2019-04-12T22:29:00.874Z,99.90
2019-04-12T22:34:49.827Z,99.90
2019-04-12T22:37:30.125Z,99.90
2019-04-12T22:40:18.938Z,99.90
2019-04-12T22:43:07.729Z,99.90
2019-04-12T22:45:57.114Z,99.90
2019-04-12T22:48:46.206Z,99.90
2019-04-12T22:51:35.340Z,99.90
2019-04-12T22:54:24.118Z,99.90
2019-04-12T22:57:12.865Z,99.90
2019-04-12T23:00:01.638Z,99.90
2019-04-12T23:03:09.415Z,99.90
2019-04-12T23:05:58.182Z,99.90
2019-04-12T23:08:47.462Z,99.90
2019-04-12T23:11:36.772Z,99.90
2019-04-12T23:14:25.992Z,99.90
2019-04-12T23:17:14.804Z,99.90
2019-04-12T23:20:04.055Z,99.90
2019-04-12T23:22:53.283Z,99.90
2019-04-12T23:28:49.474Z,99.90
2019-04-12T23:37:46.319Z,99.90
2019-04-12T23:40:27.607Z,99.90
2019-04-12T23:43:08.950Z,99.90
2019-04-12T23:45:50.334Z,99.90
2019-04-12T23:48:32.110Z,99.90
2019-04-12T23:51:13.795Z,99.90
2019-04-12T23:53:55.008Z,99.90
2019-04-12T23:56:36.366Z,99.90
2019-04-12T23:59:18.175Z,99.90
